sensor_id;sensor_type;location;lat;lon;timestamp;P1;durP1;ratioP1;P2;durP2;ratioP2
71496;SDS011;59317;53.218;5.730;2022-07-29T00:02:00;5.75;;;1.20;;
71496;SDS011;59317;53.218;5.730;2022-07-29T00:04:26;5.43;;;1.10;;
71496;SDS011;59317;53.218;5.730;2022-07-29T00:06:52;3.55;;;1.02;;
71496;SDS011;59317;53.218;5.730;2022-07-29T00:09:18;5.18;;;1.27;;
71496;SDS011;59317;53.218;5.730;2022-07-29T00:11:44;4.97;;;1.00;;
71496;SDS011;59317;53.218;5.730;2022-07-29T00:14:10;4.30;;;1.13;;
71496;SDS011;59317;53.218;5.730;2022-07-29T00:16:36;5.60;;;1.30;;
71496;SDS011;59317;53.218;5.730;2022-07-29T00:19:02;5.03;;;1.10;;
71496;SDS011;59317;53.218;5.730;2022-07-29T00:21:28;5.10;;;1.30;;
71496;SDS011;59317;53.218;5.730;2022-07-29T00:23:54;5.20;;;1.20;;
71496;SDS011;59317;53.218;5.730;2022-07-29T00:26:20;4.80;;;1.07;;
71496;SDS011;59317;53.218;5.730;2022-07-29T00:28:46;4.23;;;1.00;;
71496;SDS011;59317;53.218;5.730;2022-07-29T00:31:12;4.50;;;1.10;;
71496;SDS011;59317;53.218;5.730;2022-07-29T00:33:38;4.87;;;1.10;;
71496;SDS011;59317;53.218;5.730;2022-07-29T00:36:04;5.25;;;1.10;;
71496;SDS011;59317;53.218;5.730;2022-07-29T00:38:30;6.20;;;1.30;;
71496;SDS011;59317;53.218;5.730;2022-07-29T00:40:56;4.53;;;1.23;;
71496;SDS011;59317;53.218;5.730;2022-07-29T00:43:22;5.97;;;1.13;;
71496;SDS011;59317;53.218;5.730;2022-07-29T00:45:48;4.60;;;1.13;;
71496;SDS011;59317;53.218;5.730;2022-07-29T00:48:14;5.40;;;1.20;;
71496;SDS011;59317;53.218;5.730;2022-07-29T00:50:40;5.00;;;1.10;;
71496;SDS011;59317;53.218;5.730;2022-07-29T00:53:07;3.58;;;1.05;;
71496;SDS011;59317;53.218;5.730;2022-07-29T00:55:33;4.40;;;1.10;;
71496;SDS011;59317;53.218;5.730;2022-07-29T00:57:59;4.05;;;1.20;;
71496;SDS011;59317;53.218;5.730;2022-07-29T01:00:26;4.85;;;1.13;;
71496;SDS011;59317;53.218;5.730;2022-07-29T01:02:52;6.18;;;1.17;;
71496;SDS011;59317;53.218;5.730;2022-07-29T01:05:19;4.05;;;1.20;;
71496;SDS011;59317;53.218;5.730;2022-07-29T01:07:45;4.25;;;1.10;;
71496;SDS011;59317;53.218;5.730;2022-07-29T01:10:12;5.78;;;1.25;;
71496;SDS011;59317;53.218;5.730;2022-07-29T01:12:39;4.15;;;1.00;;
71496;SDS011;59317;53.218;5.730;2022-07-29T01:15:06;4.78;;;1.00;;
71496;SDS011;59317;53.218;5.730;2022-07-29T01:20:14;4.10;;;1.10;;
71496;SDS011;59317;53.218;5.730;2022-07-29T01:28:01;4.43;;;1.20;;
71496;SDS011;59317;53.218;5.730;2022-07-29T01:30:30;5.35;;;1.17;;
71496;SDS011;59317;53.218;5.730;2022-07-29T01:33:06;6.10;;;1.30;;
71496;SDS011;59317;53.218;5.730;2022-07-29T01:35:41;4.40;;;1.20;;
71496;SDS011;59317;53.218;5.730;2022-07-29T01:38:08;4.55;;;1.10;;
71496;SDS011;59317;53.218;5.730;2022-07-29T01:43:06;4.73;;;1.20;;
71496;SDS011;59317;53.218;5.730;2022-07-29T01:45:41;5.80;;;1.35;;
71496;SDS011;59317;53.218;5.730;2022-07-29T01:48:13;5.72;;;1.20;;
71496;SDS011;59317;53.218;5.730;2022-07-29T01:53:37;4.63;;;1.20;;
71496;SDS011;59317;53.218;5.730;2022-07-29T01:56:05;4.65;;;1.20;;
71496;SDS011;59317;53.218;5.730;2022-07-29T01:58:32;4.93;;;1.45;;
71496;SDS011;59317;53.218;5.730;2022-07-29T02:00:58;5.50;;;1.50;;
71496;SDS011;59317;53.218;5.730;2022-07-29T02:03:25;5.73;;;1.50;;
71496;SDS011;59317;53.218;5.730;2022-07-29T02:05:52;5.20;;;1.40;;
71496;SDS011;59317;53.218;5.730;2022-07-29T02:08:18;4.30;;;1.30;;
71496;SDS011;59317;53.218;5.730;2022-07-29T02:10:45;6.25;;;1.30;;
71496;SDS011;59317;53.218;5.730;2022-07-29T02:13:12;4.45;;;1.33;;
71496;SDS011;59317;53.218;5.730;2022-07-29T02:15:39;4.78;;;1.30;;
71496;SDS011;59317;53.218;5.730;2022-07-29T02:18:08;5.53;;;1.40;;
71496;SDS011;59317;53.218;5.730;2022-07-29T02:20:35;5.57;;;1.48;;
71496;SDS011;59317;53.218;5.730;2022-07-29T02:23:02;4.53;;;1.35;;
71496;SDS011;59317;53.218;5.730;2022-07-29T02:25:28;5.20;;;1.60;;
71496;SDS011;59317;53.218;5.730;2022-07-29T02:27:54;5.03;;;1.27;;
71496;SDS011;59317;53.218;5.730;2022-07-29T02:30:22;6.45;;;1.60;;
71496;SDS011;59317;53.218;5.730;2022-07-29T02:32:48;7.97;;;1.50;;
71496;SDS011;59317;53.218;5.730;2022-07-29T02:35:15;5.75;;;1.60;;
71496;SDS011;59317;53.218;5.730;2022-07-29T02:37:42;5.90;;;1.50;;
71496;SDS011;59317;53.218;5.730;2022-07-29T02:40:09;4.93;;;1.30;;
71496;SDS011;59317;53.218;5.730;2022-07-29T02:42:37;5.73;;;1.40;;
71496;SDS011;59317;53.218;5.730;2022-07-29T02:45:04;4.95;;;1.40;;
71496;SDS011;59317;53.218;5.730;2022-07-29T02:47:36;5.80;;;1.50;;
71496;SDS011;59317;53.218;5.730;2022-07-29T02:50:09;4.72;;;1.40;;
71496;SDS011;59317;53.218;5.730;2022-07-29T02:55:23;5.10;;;1.50;;
71496;SDS011;59317;53.218;5.730;2022-07-29T03:00:19;5.60;;;1.30;;
71496;SDS011;59317;53.218;5.730;2022-07-29T03:02:48;5.53;;;1.50;;
71496;SDS011;59317;53.218;5.730;2022-07-29T03:05:17;4.65;;;1.30;;
71496;SDS011;59317;53.218;5.730;2022-07-29T03:07:52;5.70;;;1.40;;
71496;SDS011;59317;53.218;5.730;2022-07-29T03:10:20;5.45;;;1.40;;
71496;SDS011;59317;53.218;5.730;2022-07-29T03:12:47;5.25;;;1.40;;
71496;SDS011;59317;53.218;5.730;2022-07-29T03:15:13;4.78;;;1.35;;
71496;SDS011;59317;53.218;5.730;2022-07-29T03:17:39;5.93;;;1.50;;
71496;SDS011;59317;53.218;5.730;2022-07-29T03:20:06;6.30;;;1.50;;
71496;SDS011;59317;53.218;5.730;2022-07-29T03:22:33;7.63;;;1.58;;
71496;SDS011;59317;53.218;5.730;2022-07-29T03:25:08;3.85;;;1.30;;
71496;SDS011;59317;53.218;5.730;2022-07-29T03:27:34;5.80;;;1.30;;
71496;SDS011;59317;53.218;5.730;2022-07-29T03:30:00;6.53;;;1.50;;
71496;SDS011;59317;53.218;5.730;2022-07-29T03:32:26;5.50;;;1.27;;
71496;SDS011;59317;53.218;5.730;2022-07-29T03:34:52;4.67;;;1.50;;
71496;SDS011;59317;53.218;5.730;2022-07-29T03:37:18;4.03;;;1.33;;
71496;SDS011;59317;53.218;5.730;2022-07-29T03:39:44;5.88;;;1.45;;
71496;SDS011;59317;53.218;5.730;2022-07-29T03:42:11;5.82;;;1.35;;
71496;SDS011;59317;53.218;5.730;2022-07-29T03:44:40;5.60;;;1.50;;
71496;SDS011;59317;53.218;5.730;2022-07-29T03:47:06;6.18;;;1.60;;
71496;SDS011;59317;53.218;5.730;2022-07-29T03:49:33;5.10;;;1.40;;
71496;SDS011;59317;53.218;5.730;2022-07-29T03:52:02;4.53;;;1.48;;
71496;SDS011;59317;53.218;5.730;2022-07-29T03:54:28;5.87;;;1.40;;
71496;SDS011;59317;53.218;5.730;2022-07-29T03:56:54;5.40;;;1.60;;
71496;SDS011;59317;53.218;5.730;2022-07-29T03:59:21;6.47;;;1.90;;
71496;SDS011;59317;53.218;5.730;2022-07-29T04:01:48;5.00;;;1.40;;
71496;SDS011;59317;53.218;5.730;2022-07-29T04:04:14;5.78;;;1.60;;
71496;SDS011;59317;53.218;5.730;2022-07-29T04:06:41;5.65;;;1.60;;
71496;SDS011;59317;53.218;5.730;2022-07-29T04:09:07;6.53;;;1.83;;
71496;SDS011;59317;53.218;5.730;2022-07-29T04:11:33;6.63;;;1.48;;
71496;SDS011;59317;53.218;5.730;2022-07-29T04:13:59;6.13;;;1.58;;
71496;SDS011;59317;53.218;5.730;2022-07-29T04:16:25;6.90;;;1.35;;
71496;SDS011;59317;53.218;5.730;2022-07-29T04:18:52;6.53;;;1.60;;
71496;SDS011;59317;53.218;5.730;2022-07-29T04:21:18;6.47;;;1.60;;
71496;SDS011;59317;53.218;5.730;2022-07-29T04:23:43;5.43;;;1.40;;
71496;SDS011;59317;53.218;5.730;2022-07-29T04:26:14;6.63;;;1.55;;
71496;SDS011;59317;53.218;5.730;2022-07-29T04:28:40;5.75;;;1.60;;
71496;SDS011;59317;53.218;5.730;2022-07-29T04:31:07;7.55;;;1.55;;
71496;SDS011;59317;53.218;5.730;2022-07-29T04:33:33;6.63;;;1.55;;
71496;SDS011;59317;53.218;5.730;2022-07-29T04:35:59;4.60;;;1.40;;
71496;SDS011;59317;53.218;5.730;2022-07-29T04:38:25;6.22;;;1.33;;
71496;SDS011;59317;53.218;5.730;2022-07-29T04:40:51;5.22;;;1.10;;
71496;SDS011;59317;53.218;5.730;2022-07-29T04:43:17;5.95;;;1.40;;
71496;SDS011;59317;53.218;5.730;2022-07-29T04:45:43;5.15;;;1.23;;
71496;SDS011;59317;53.218;5.730;2022-07-29T04:48:09;4.80;;;1.10;;
71496;SDS011;59317;53.218;5.730;2022-07-29T04:50:37;6.65;;;1.20;;
71496;SDS011;59317;53.218;5.730;2022-07-29T04:53:03;4.10;;;1.00;;
71496;SDS011;59317;53.218;5.730;2022-07-29T04:55:29;5.60;;;1.23;;
71496;SDS011;59317;53.218;5.730;2022-07-29T04:57:55;5.70;;;1.30;;
71496;SDS011;59317;53.218;5.730;2022-07-29T05:00:21;4.80;;;1.27;;
71496;SDS011;59317;53.218;5.730;2022-07-29T05:02:48;5.10;;;1.20;;
71496;SDS011;59317;53.218;5.730;2022-07-29T05:05:14;6.97;;;1.13;;
71496;SDS011;59317;53.218;5.730;2022-07-29T05:07:40;5.38;;;1.30;;
71496;SDS011;59317;53.218;5.730;2022-07-29T05:10:06;4.67;;;1.10;;
71496;SDS011;59317;53.218;5.730;2022-07-29T05:12:32;6.35;;;1.10;;
71496;SDS011;59317;53.218;5.730;2022-07-29T05:14:58;5.35;;;1.33;;
71496;SDS011;59317;53.218;5.730;2022-07-29T05:17:24;5.57;;;1.20;;
71496;SDS011;59317;53.218;5.730;2022-07-29T05:19:50;5.50;;;1.20;;
71496;SDS011;59317;53.218;5.730;2022-07-29T05:22:20;5.75;;;1.35;;
71496;SDS011;59317;53.218;5.730;2022-07-29T05:24:46;6.10;;;1.10;;
71496;SDS011;59317;53.218;5.730;2022-07-29T05:27:12;7.33;;;1.20;;
71496;SDS011;59317;53.218;5.730;2022-07-29T05:29:38;5.57;;;1.30;;
71496;SDS011;59317;53.218;5.730;2022-07-29T05:32:04;4.28;;;1.10;;
71496;SDS011;59317;53.218;5.730;2022-07-29T05:34:30;5.35;;;1.10;;
71496;SDS011;59317;53.218;5.730;2022-07-29T05:36:56;4.47;;;1.10;;
71496;SDS011;59317;53.218;5.730;2022-07-29T05:39:23;5.57;;;1.02;;
71496;SDS011;59317;53.218;5.730;2022-07-29T05:41:49;4.20;;;1.02;;
71496;SDS011;59317;53.218;5.730;2022-07-29T05:44:15;6.70;;;1.10;;
71496;SDS011;59317;53.218;5.730;2022-07-29T05:46:41;4.53;;;1.17;;
71496;SDS011;59317;53.218;5.730;2022-07-29T05:49:07;4.88;;;1.10;;
71496;SDS011;59317;53.218;5.730;2022-07-29T05:51:34;5.32;;;0.95;;
71496;SDS011;59317;53.218;5.730;2022-07-29T05:54:00;5.80;;;1.23;;
71496;SDS011;59317;53.218;5.730;2022-07-29T05:56:26;5.70;;;1.27;;
71496;SDS011;59317;53.218;5.730;2022-07-29T05:58:52;5.22;;;1.20;;
71496;SDS011;59317;53.218;5.730;2022-07-29T06:01:18;5.53;;;1.00;;
71496;SDS011;59317;53.218;5.730;2022-07-29T06:03:44;4.20;;;0.90;;
71496;SDS011;59317;53.218;5.730;2022-07-29T06:06:10;6.80;;;1.10;;
71496;SDS011;59317;53.218;5.730;2022-07-29T06:08:36;7.38;;;1.10;;
71496;SDS011;59317;53.218;5.730;2022-07-29T06:11:03;5.00;;;0.93;;
71496;SDS011;59317;53.218;5.730;2022-07-29T06:13:29;4.72;;;1.00;;
71496;SDS011;59317;53.218;5.730;2022-07-29T06:15:55;6.55;;;1.00;;
71496;SDS011;59317;53.218;5.730;2022-07-29T06:18:21;3.78;;;0.90;;
71496;SDS011;59317;53.218;5.730;2022-07-29T06:20:49;5.18;;;1.00;;
71496;SDS011;59317;53.218;5.730;2022-07-29T06:23:15;5.40;;;1.10;;
71496;SDS011;59317;53.218;5.730;2022-07-29T06:25:41;6.30;;;1.10;;
71496;SDS011;59317;53.218;5.730;2022-07-29T06:28:07;5.97;;;0.90;;
71496;SDS011;59317;53.218;5.730;2022-07-29T06:30:33;4.53;;;1.00;;
71496;SDS011;59317;53.218;5.730;2022-07-29T06:33:00;6.13;;;1.00;;
71496;SDS011;59317;53.218;5.730;2022-07-29T06:35:26;4.97;;;0.80;;
71496;SDS011;59317;53.218;5.730;2022-07-29T06:37:52;5.68;;;0.90;;
71496;SDS011;59317;53.218;5.730;2022-07-29T06:40:19;5.43;;;0.80;;
71496;SDS011;59317;53.218;5.730;2022-07-29T06:43:14;4.25;;;0.90;;
71496;SDS011;59317;53.218;5.730;2022-07-29T06:45:40;4.78;;;0.98;;
71496;SDS011;59317;53.218;5.730;2022-07-29T06:48:07;5.10;;;0.95;;
71496;SDS011;59317;53.218;5.730;2022-07-29T06:50:33;4.40;;;0.90;;
71496;SDS011;59317;53.218;5.730;2022-07-29T06:52:59;4.70;;;1.10;;
71496;SDS011;59317;53.218;5.730;2022-07-29T06:55:25;5.40;;;1.10;;
71496;SDS011;59317;53.218;5.730;2022-07-29T06:57:51;4.22;;;0.80;;
71496;SDS011;59317;53.218;5.730;2022-07-29T07:00:17;5.90;;;0.85;;
71496;SDS011;59317;53.218;5.730;2022-07-29T07:02:43;7.10;;;1.00;;
71496;SDS011;59317;53.218;5.730;2022-07-29T07:05:09;4.53;;;1.05;;
71496;SDS011;59317;53.218;5.730;2022-07-29T07:07:35;4.68;;;0.80;;
71496;SDS011;59317;53.218;5.730;2022-07-29T07:10:01;4.78;;;0.80;;
71496;SDS011;59317;53.218;5.730;2022-07-29T07:12:27;6.78;;;0.90;;
71496;SDS011;59317;53.218;5.730;2022-07-29T07:14:53;4.57;;;0.82;;
71496;SDS011;59317;53.218;5.730;2022-07-29T07:17:19;6.28;;;0.93;;
71496;SDS011;59317;53.218;5.730;2022-07-29T07:19:45;4.80;;;0.75;;
71496;SDS011;59317;53.218;5.730;2022-07-29T07:22:11;5.60;;;0.80;;
71496;SDS011;59317;53.218;5.730;2022-07-29T07:24:37;5.53;;;0.90;;
71496;SDS011;59317;53.218;5.730;2022-07-29T07:27:03;5.60;;;0.90;;
71496;SDS011;59317;53.218;5.730;2022-07-29T07:29:29;5.50;;;0.80;;
71496;SDS011;59317;53.218;5.730;2022-07-29T07:31:55;5.00;;;0.90;;
71496;SDS011;59317;53.218;5.730;2022-07-29T07:34:21;4.43;;;0.97;;
71496;SDS011;59317;53.218;5.730;2022-07-29T07:36:46;5.40;;;1.03;;
71496;SDS011;59317;53.218;5.730;2022-07-29T07:39:12;5.07;;;0.80;;
71496;SDS011;59317;53.218;5.730;2022-07-29T07:41:38;6.07;;;0.80;;
71496;SDS011;59317;53.218;5.730;2022-07-29T07:44:04;5.40;;;0.97;;
71496;SDS011;59317;53.218;5.730;2022-07-29T07:46:31;5.43;;;0.82;;
71496;SDS011;59317;53.218;5.730;2022-07-29T07:48:57;4.93;;;0.93;;
71496;SDS011;59317;53.218;5.730;2022-07-29T07:51:23;5.15;;;1.00;;
71496;SDS011;59317;53.218;5.730;2022-07-29T07:53:49;6.70;;;0.85;;
71496;SDS011;59317;53.218;5.730;2022-07-29T07:56:17;4.40;;;0.90;;
71496;SDS011;59317;53.218;5.730;2022-07-29T07:58:43;6.47;;;0.90;;
71496;SDS011;59317;53.218;5.730;2022-07-29T08:01:09;6.35;;;1.00;;
71496;SDS011;59317;53.218;5.730;2022-07-29T08:03:35;6.32;;;0.90;;
71496;SDS011;59317;53.218;5.730;2022-07-29T08:06:02;5.63;;;1.10;;
71496;SDS011;59317;53.218;5.730;2022-07-29T08:08:28;7.60;;;1.08;;
71496;SDS011;59317;53.218;5.730;2022-07-29T08:10:54;4.57;;;0.90;;
71496;SDS011;59317;53.218;5.730;2022-07-29T08:13:24;5.18;;;0.90;;
71496;SDS011;59317;53.218;5.730;2022-07-29T08:15:52;5.33;;;1.07;;
71496;SDS011;59317;53.218;5.730;2022-07-29T08:18:35;5.80;;;1.10;;
71496;SDS011;59317;53.218;5.730;2022-07-29T08:21:02;5.63;;;1.13;;
71496;SDS011;59317;53.218;5.730;2022-07-29T08:23:28;4.90;;;1.20;;
71496;SDS011;59317;53.218;5.730;2022-07-29T08:26:03;5.53;;;1.00;;
71496;SDS011;59317;53.218;5.730;2022-07-29T08:28:29;6.22;;;1.10;;
71496;SDS011;59317;53.218;5.730;2022-07-29T08:30:55;5.60;;;1.00;;
71496;SDS011;59317;53.218;5.730;2022-07-29T08:33:21;6.30;;;1.08;;
71496;SDS011;59317;53.218;5.730;2022-07-29T08:35:47;5.88;;;1.10;;
71496;SDS011;59317;53.218;5.730;2022-07-29T08:38:15;4.70;;;1.00;;
71496;SDS011;59317;53.218;5.730;2022-07-29T08:40:41;5.60;;;1.08;;
71496;SDS011;59317;53.218;5.730;2022-07-29T08:43:07;6.72;;;1.15;;
71496;SDS011;59317;53.218;5.730;2022-07-29T08:45:44;5.40;;;1.30;;
71496;SDS011;59317;53.218;5.730;2022-07-29T08:48:13;4.43;;;1.05;;
71496;SDS011;59317;53.218;5.730;2022-07-29T08:50:40;5.68;;;1.00;;
71496;SDS011;59317;53.218;5.730;2022-07-29T08:53:07;6.55;;;1.25;;
71496;SDS011;59317;53.218;5.730;2022-07-29T08:55:35;4.80;;;1.27;;
71496;SDS011;59317;53.218;5.730;2022-07-29T08:58:01;5.65;;;1.10;;
71496;SDS011;59317;53.218;5.730;2022-07-29T09:00:27;5.25;;;1.05;;
71496;SDS011;59317;53.218;5.730;2022-07-29T09:02:56;17.90;;;1.40;;
71496;SDS011;59317;53.218;5.730;2022-07-29T09:05:22;5.15;;;1.15;;
71496;SDS011;59317;53.218;5.730;2022-07-29T09:07:50;6.57;;;1.40;;
71496;SDS011;59317;53.218;5.730;2022-07-29T09:10:16;7.47;;;1.50;;
71496;SDS011;59317;53.218;5.730;2022-07-29T09:12:42;4.32;;;1.30;;
71496;SDS011;59317;53.218;5.730;2022-07-29T09:15:08;5.10;;;1.20;;
71496;SDS011;59317;53.218;5.730;2022-07-29T09:17:41;5.55;;;1.20;;
71496;SDS011;59317;53.218;5.730;2022-07-29T09:20:10;5.93;;;1.15;;
71496;SDS011;59317;53.218;5.730;2022-07-29T09:22:37;6.05;;;1.40;;
71496;SDS011;59317;53.218;5.730;2022-07-29T09:25:03;7.80;;;1.55;;
71496;SDS011;59317;53.218;5.730;2022-07-29T09:27:29;7.00;;;1.40;;
71496;SDS011;59317;53.218;5.730;2022-07-29T09:29:56;6.05;;;1.30;;
71496;SDS011;59317;53.218;5.730;2022-07-29T09:32:23;7.38;;;1.48;;
71496;SDS011;59317;53.218;5.730;2022-07-29T09:34:49;6.57;;;1.50;;
71496;SDS011;59317;53.218;5.730;2022-07-29T09:37:30;6.00;;;1.40;;
71496;SDS011;59317;53.218;5.730;2022-07-29T09:39:56;7.00;;;1.50;;
71496;SDS011;59317;53.218;5.730;2022-07-29T09:42:29;5.30;;;1.40;;
71496;SDS011;59317;53.218;5.730;2022-07-29T09:44:57;5.93;;;1.30;;
71496;SDS011;59317;53.218;5.730;2022-07-29T09:47:27;6.70;;;1.50;;
71496;SDS011;59317;53.218;5.730;2022-07-29T09:50:05;5.53;;;1.45;;
71496;SDS011;59317;53.218;5.730;2022-07-29T09:52:31;6.97;;;1.60;;
71496;SDS011;59317;53.218;5.730;2022-07-29T09:55:07;6.25;;;1.60;;
71496;SDS011;59317;53.218;5.730;2022-07-29T09:57:33;6.18;;;1.50;;
71496;SDS011;59317;53.218;5.730;2022-07-29T10:00:00;5.93;;;1.45;;
71496;SDS011;59317;53.218;5.730;2022-07-29T10:02:30;5.90;;;1.70;;
71496;SDS011;59317;53.218;5.730;2022-07-29T10:04:57;7.13;;;1.87;;
71496;SDS011;59317;53.218;5.730;2022-07-29T10:07:23;5.43;;;1.70;;
71496;SDS011;59317;53.218;5.730;2022-07-29T10:09:53;7.37;;;1.80;;
71496;SDS011;59317;53.218;5.730;2022-07-29T10:12:20;7.28;;;1.67;;
71496;SDS011;59317;53.218;5.730;2022-07-29T10:14:46;6.47;;;1.75;;
71496;SDS011;59317;53.218;5.730;2022-07-29T10:17:12;8.45;;;1.65;;
71496;SDS011;59317;53.218;5.730;2022-07-29T10:19:38;8.02;;;2.00;;
71496;SDS011;59317;53.218;5.730;2022-07-29T10:22:09;7.80;;;1.90;;
71496;SDS011;59317;53.218;5.730;2022-07-29T10:24:35;6.93;;;1.90;;
71496;SDS011;59317;53.218;5.730;2022-07-29T10:27:03;6.82;;;1.70;;
71496;SDS011;59317;53.218;5.730;2022-07-29T10:29:29;7.67;;;2.00;;
71496;SDS011;59317;53.218;5.730;2022-07-29T10:34:31;5.90;;;1.80;;
71496;SDS011;59317;53.218;5.730;2022-07-29T10:37:16;5.40;;;1.50;;
71496;SDS011;59317;53.218;5.730;2022-07-29T10:39:50;8.30;;;2.05;;
71496;SDS011;59317;53.218;5.730;2022-07-29T10:42:25;6.47;;;2.00;;
71496;SDS011;59317;53.218;5.730;2022-07-29T10:44:53;5.60;;;1.60;;
71496;SDS011;59317;53.218;5.730;2022-07-29T10:47:20;5.57;;;1.73;;
71496;SDS011;59317;53.218;5.730;2022-07-29T10:49:59;7.82;;;2.38;;
71496;SDS011;59317;53.218;5.730;2022-07-29T10:52:45;7.07;;;2.22;;
71496;SDS011;59317;53.218;5.730;2022-07-29T10:55:29;7.37;;;2.40;;
71496;SDS011;59317;53.218;5.730;2022-07-29T10:58:12;8.93;;;2.50;;
71496;SDS011;59317;53.218;5.730;2022-07-29T11:00:38;9.18;;;2.40;;
71496;SDS011;59317;53.218;5.730;2022-07-29T11:03:05;8.95;;;2.25;;
71496;SDS011;59317;53.218;5.730;2022-07-29T11:05:30;7.93;;;2.35;;
71496;SDS011;59317;53.218;5.730;2022-07-29T11:08:17;7.15;;;2.40;;
71496;SDS011;59317;53.218;5.730;2022-07-29T11:10:46;8.30;;;2.40;;
71496;SDS011;59317;53.218;5.730;2022-07-29T11:13:12;7.03;;;2.20;;
71496;SDS011;59317;53.218;5.730;2022-07-29T11:15:57;7.20;;;2.00;;
71496;SDS011;59317;53.218;5.730;2022-07-29T11:18:23;7.80;;;2.17;;
71496;SDS011;59317;53.218;5.730;2022-07-29T11:20:49;7.18;;;2.17;;
71496;SDS011;59317;53.218;5.730;2022-07-29T11:23:32;9.85;;;2.65;;
71496;SDS011;59317;53.218;5.730;2022-07-29T11:31:19;8.60;;;2.47;;
71496;SDS011;59317;53.218;5.730;2022-07-29T11:33:45;8.70;;;2.80;;
71496;SDS011;59317;53.218;5.730;2022-07-29T11:36:14;8.90;;;2.50;;
71496;SDS011;59317;53.218;5.730;2022-07-29T11:38:41;8.10;;;2.55;;
71496;SDS011;59317;53.218;5.730;2022-07-29T11:41:26;6.90;;;2.58;;
71496;SDS011;59317;53.218;5.730;2022-07-29T11:49:05;8.40;;;2.55;;
71496;SDS011;59317;53.218;5.730;2022-07-29T11:51:31;6.50;;;2.15;;
71496;SDS011;59317;53.218;5.730;2022-07-29T11:53:57;8.53;;;2.30;;
71496;SDS011;59317;53.218;5.730;2022-07-29T11:56:24;9.75;;;2.30;;
71496;SDS011;59317;53.218;5.730;2022-07-29T11:59:00;8.32;;;2.53;;
71496;SDS011;59317;53.218;5.730;2022-07-29T12:01:26;8.25;;;2.40;;
71496;SDS011;59317;53.218;5.730;2022-07-29T12:04:02;8.25;;;2.60;;
71496;SDS011;59317;53.218;5.730;2022-07-29T12:06:28;9.88;;;2.60;;
71496;SDS011;59317;53.218;5.730;2022-07-29T12:08:54;8.30;;;2.88;;
71496;SDS011;59317;53.218;5.730;2022-07-29T12:11:21;8.55;;;2.60;;
71496;SDS011;59317;53.218;5.730;2022-07-29T12:13:47;7.82;;;2.30;;
71496;SDS011;59317;53.218;5.730;2022-07-29T12:16:13;6.90;;;2.63;;
71496;SDS011;59317;53.218;5.730;2022-07-29T12:18:39;7.57;;;2.38;;
71496;SDS011;59317;53.218;5.730;2022-07-29T12:21:05;7.68;;;2.72;;
71496;SDS011;59317;53.218;5.730;2022-07-29T12:23:33;7.93;;;2.70;;
71496;SDS011;59317;53.218;5.730;2022-07-29T12:25:59;10.10;;;2.50;;
71496;SDS011;59317;53.218;5.730;2022-07-29T12:28:25;8.07;;;2.40;;
71496;SDS011;59317;53.218;5.730;2022-07-29T12:30:52;9.88;;;2.60;;
71496;SDS011;59317;53.218;5.730;2022-07-29T12:33:22;9.68;;;2.33;;
71496;SDS011;59317;53.218;5.730;2022-07-29T12:35:49;7.30;;;2.03;;
71496;SDS011;59317;53.218;5.730;2022-07-29T12:38:16;7.90;;;2.35;;
71496;SDS011;59317;53.218;5.730;2022-07-29T12:40:45;7.85;;;2.90;;
71496;SDS011;59317;53.218;5.730;2022-07-29T12:43:16;8.02;;;2.63;;
71496;SDS011;59317;53.218;5.730;2022-07-29T12:45:44;9.82;;;2.50;;
71496;SDS011;59317;53.218;5.730;2022-07-29T12:48:10;7.85;;;2.40;;
71496;SDS011;59317;53.218;5.730;2022-07-29T12:50:37;6.53;;;2.30;;
71496;SDS011;59317;53.218;5.730;2022-07-29T12:53:17;7.72;;;2.70;;
71496;SDS011;59317;53.218;5.730;2022-07-29T12:55:45;7.80;;;2.67;;
71496;SDS011;59317;53.218;5.730;2022-07-29T12:58:25;7.32;;;2.75;;
71496;SDS011;59317;53.218;5.730;2022-07-29T13:00:59;6.85;;;2.30;;
71496;SDS011;59317;53.218;5.730;2022-07-29T13:03:26;8.68;;;2.45;;
71496;SDS011;59317;53.218;5.730;2022-07-29T13:05:52;8.77;;;2.80;;
71496;SDS011;59317;53.218;5.730;2022-07-29T13:08:18;7.87;;;2.40;;
71496;SDS011;59317;53.218;5.730;2022-07-29T13:10:45;7.93;;;2.72;;
71496;SDS011;59317;53.218;5.730;2022-07-29T13:13:12;8.27;;;2.90;;
71496;SDS011;59317;53.218;5.730;2022-07-29T13:15:42;8.88;;;2.85;;
71496;SDS011;59317;53.218;5.730;2022-07-29T13:18:27;9.32;;;2.70;;
71496;SDS011;59317;53.218;5.730;2022-07-29T13:20:53;9.82;;;2.70;;
71496;SDS011;59317;53.218;5.730;2022-07-29T13:23:19;8.95;;;2.67;;
71496;SDS011;59317;53.218;5.730;2022-07-29T13:25:45;7.80;;;2.70;;
71496;SDS011;59317;53.218;5.730;2022-07-29T13:28:11;7.85;;;2.75;;
71496;SDS011;59317;53.218;5.730;2022-07-29T13:30:37;8.13;;;2.92;;
71496;SDS011;59317;53.218;5.730;2022-07-29T13:33:04;8.48;;;2.70;;
71496;SDS011;59317;53.218;5.730;2022-07-29T13:35:30;8.38;;;2.83;;
71496;SDS011;59317;53.218;5.730;2022-07-29T13:37:56;9.10;;;2.78;;
71496;SDS011;59317;53.218;5.730;2022-07-29T13:40:22;7.93;;;2.65;;
71496;SDS011;59317;53.218;5.730;2022-07-29T13:42:48;8.27;;;2.90;;
71496;SDS011;59317;53.218;5.730;2022-07-29T13:45:15;8.60;;;2.40;;
71496;SDS011;59317;53.218;5.730;2022-07-29T13:47:41;9.02;;;2.75;;
71496;SDS011;59317;53.218;5.730;2022-07-29T13:50:07;7.07;;;2.55;;
71496;SDS011;59317;53.218;5.730;2022-07-29T13:52:35;7.53;;;2.65;;
71496;SDS011;59317;53.218;5.730;2022-07-29T13:55:01;7.18;;;2.17;;
71496;SDS011;59317;53.218;5.730;2022-07-29T13:57:27;8.90;;;2.67;;
71496;SDS011;59317;53.218;5.730;2022-07-29T13:59:54;8.38;;;2.10;;
71496;SDS011;59317;53.218;5.730;2022-07-29T14:02:20;8.93;;;2.78;;
71496;SDS011;59317;53.218;5.730;2022-07-29T14:04:49;8.07;;;2.53;;
71496;SDS011;59317;53.218;5.730;2022-07-29T14:07:15;6.45;;;2.47;;
71496;SDS011;59317;53.218;5.730;2022-07-29T14:09:41;8.75;;;2.70;;
71496;SDS011;59317;53.218;5.730;2022-07-29T14:12:07;9.73;;;2.80;;
71496;SDS011;59317;53.218;5.730;2022-07-29T14:14:33;9.82;;;2.63;;
71496;SDS011;59317;53.218;5.730;2022-07-29T14:17:01;9.07;;;2.30;;
71496;SDS011;59317;53.218;5.730;2022-07-29T14:19:28;8.57;;;2.50;;
71496;SDS011;59317;53.218;5.730;2022-07-29T14:21:54;8.07;;;2.42;;
71496;SDS011;59317;53.218;5.730;2022-07-29T14:24:20;9.90;;;2.70;;
71496;SDS011;59317;53.218;5.730;2022-07-29T14:26:45;7.90;;;2.80;;
71496;SDS011;59317;53.218;5.730;2022-07-29T14:29:11;9.05;;;2.60;;
71496;SDS011;59317;53.218;5.730;2022-07-29T14:31:39;8.85;;;2.42;;
71496;SDS011;59317;53.218;5.730;2022-07-29T14:34:08;8.60;;;2.75;;
71496;SDS011;59317;53.218;5.730;2022-07-29T14:36:34;7.10;;;2.47;;
71496;SDS011;59317;53.218;5.730;2022-07-29T14:39:00;7.75;;;2.90;;
71496;SDS011;59317;53.218;5.730;2022-07-29T14:41:26;7.30;;;2.65;;
71496;SDS011;59317;53.218;5.730;2022-07-29T14:43:53;8.95;;;2.85;;
71496;SDS011;59317;53.218;5.730;2022-07-29T14:46:19;8.50;;;2.78;;
71496;SDS011;59317;53.218;5.730;2022-07-29T14:48:45;8.43;;;2.50;;
71496;SDS011;59317;53.218;5.730;2022-07-29T14:51:11;9.00;;;2.57;;
71496;SDS011;59317;53.218;5.730;2022-07-29T14:53:37;9.27;;;2.85;;
71496;SDS011;59317;53.218;5.730;2022-07-29T14:56:03;6.88;;;2.50;;
71496;SDS011;59317;53.218;5.730;2022-07-29T14:58:29;6.68;;;2.30;;
71496;SDS011;59317;53.218;5.730;2022-07-29T15:00:55;7.13;;;2.05;;
71496;SDS011;59317;53.218;5.730;2022-07-29T15:03:21;6.93;;;2.00;;
71496;SDS011;59317;53.218;5.730;2022-07-29T15:05:48;5.10;;;1.90;;
71496;SDS011;59317;53.218;5.730;2022-07-29T15:08:14;7.13;;;2.03;;
71496;SDS011;59317;53.218;5.730;2022-07-29T15:10:40;8.05;;;2.30;;
71496;SDS011;59317;53.218;5.730;2022-07-29T15:13:06;7.15;;;2.20;;
71496;SDS011;59317;53.218;5.730;2022-07-29T15:15:32;6.70;;;2.20;;
71496;SDS011;59317;53.218;5.730;2022-07-29T15:18:01;7.30;;;2.20;;
71496;SDS011;59317;53.218;5.730;2022-07-29T15:20:48;9.75;;;2.38;;
71496;SDS011;59317;53.218;5.730;2022-07-29T15:23:14;7.88;;;2.33;;